This is the latest recevied weather packets stored in our database for station/object IK2ILW-4. If no packets are shown the sender has not sent any weather packets the latest 10 day(s).
| Time | Temp. | Humidity | Pressure | Rain* | Wind** | Luminosity | Snow |
|---|---|---|---|---|---|---|---|
| 1787885854 | 19.44° C | 76% | 1023.3 hPa | 0 mm | - | 0 W/m² | - |
| 1787885563 | 19.44° C | 76% | 1023.3 hPa | 0 mm | - | 0 W/m² | - |
| 1787885271 | 19.44° C | 76% | 1023.3 hPa | 0 mm | - | 0 W/m² | - |
| 1787884968 | 19.44° C | 76% | 1023.1 hPa | 0 mm | - | 0 W/m² | - |
| 1787884664 | 20° C | 75% | 1023.1 hPa | 0 mm | - | 0 W/m² | - |
| 1787884370 | 20° C | 75% | 1023.1 hPa | 0 mm | - | 0 W/m² | - |
| 1787884067 | 19.44° C | 75% | 1023.1 hPa | 0 mm | - | 0 W/m² | - |
| 1787883763 | 19.44° C | 76% | 1023.1 hPa | 0 mm | - | 0 W/m² | - |
| 1787883470 | 19.44° C | 76% | 1023.1 hPa | 0 mm | - | 0 W/m² | - |
| 1787883165 | 19.44° C | 77% | 1023.3 hPa | 0 mm | - | 0 W/m² | - |
| 1787882858 | 19.44° C | 78% | 1023.3 hPa | 0 mm | - | 0 W/m² | - |
| 1787882570 | 19.44° C | 78% | 1023.3 hPa | 0 mm | - | 0 W/m² | - |
| 1787882268 | 18.89° C | 78% | 1023.3 hPa | 0 mm | - | 0 W/m² | - |
| 1787881962 | 18.89° C | 80% | 1023.3 hPa | 0 mm | - | 0 W/m² | - |
| 1787881669 | 18.89° C | 81% | 1023.3 hPa | 0 mm | - | 0 W/m² | - |
| 1787881365 | 18.89° C | 80% | 1023.2 hPa | 0 mm | - | 0 W/m² | - |
| 1787881059 | 18.89° C | 80% | 1023.2 hPa | 0 mm | - | 0 W/m² | - |
| 1787880755 | 18.89° C | 80% | 1023.2 hPa | 0 mm | - | 0 W/m² | - |
| 1787880472 | 18.89° C | 81% | 1023.1 hPa | 0 mm | - | 0 W/m² | - |
| 1787880168 | 18.89° C | 82% | 1023.1 hPa | 0 mm | - | 0 W/m² | - |
| 1787879873 | 18.33° C | 82% | 1023.1 hPa | 0 mm | - | 0 W/m² | - |
| 1787879559 | 18.89° C | 82% | 1023.2 hPa | 0 mm | - | 0 W/m² | - |
| 1787879256 | 18.89° C | 81% | 1023.2 hPa | 0 mm | - | 0 W/m² | - |
| 1787878963 | 18.33° C | 81% | 1023.2 hPa | 0 mm | - | 0 W/m² | - |
| 1787874758 | 19.44° C | 79% | 1024.3 hPa | 0 mm | - | 0 W/m² | - |
* Rain since midnight (hover to see other rain measurements)
** Current wind speed in m/s (hover to see current wind gust speed)